Time;durP1;ratioP1;P1;durP2;ratioP2;P2;SDS_P1;SDS_P2;PMS_P1;PMS_P2;Temp;Humidity;BMP_temperature;BMP_pressure;BME280_temperature;BME280_humidity;BME280_pressure;Samples;Min_cycle;Max_cycle;Signal;HPM_P1;HPM_P2
2021/11/11 00:05:32;;;;;;;23.80;14.05;;;5.20;99.90;;;;;;12406684;28;20145;-41
2021/11/11 00:11:34;;;;;;;24.17;13.95;;;5.40;99.90;;;;;;12421747;28;20094;-36
2021/11/11 00:17:38;;;;;;;31.40;14.88;;;5.50;99.90;;;;;;12426828;28;20054;-42
2021/11/11 00:23:40;;;;;;;26.15;15.43;;;5.50;99.90;;;;;;12423233;28;20053;-37
2021/11/11 00:29:44;;;;;;;26.08;14.55;;;5.30;99.90;;;;;;12398020;28;20054;-37
2021/11/11 00:35:46;;;;;;;27.73;14.55;;;5.40;99.90;;;;;;12375672;28;20042;-41
2021/11/11 00:41:48;;;;;;;25.92;14.57;;;5.30;99.90;;;;;;12358287;28;20137;-37
2021/11/11 00:47:50;;;;;;;23.58;13.90;;;5.20;99.90;;;;;;12374013;28;20133;-38
2021/11/11 00:53:52;;;;;;;23.05;14.02;;;5.20;99.90;;;;;;12371519;28;20109;-37
2021/11/11 00:59:54;;;;;;;24.15;15.20;;;5.30;99.90;;;;;;12373217;28;20506;-37
2021/11/11 01:05:56;;;;;;;26.63;14.70;;;5.40;99.90;;;;;;12368903;28;20038;-42
2021/11/11 01:11:58;;;;;;;27.35;15.05;;;5.30;99.90;;;;;;12374442;28;20558;-37
2021/11/11 01:18:02;;;;;;;22.35;15.15;;;5.40;99.90;;;;;;12374732;28;20096;-41
2021/11/11 01:24:04;;;;;;;23.27;15.30;;;5.50;99.90;;;;;;12372175;28;20101;-37
2021/11/11 01:30:07;;;;;;;25.38;15.10;;;5.50;99.90;;;;;;12398599;28;20058;-38
2021/11/11 01:36:09;;;;;;;22.25;14.43;;;5.40;99.90;;;;;;12422012;28;20068;-37
2021/11/11 01:42:11;;;;;;;23.70;15.10;;;5.40;99.90;;;;;;12421799;28;20041;-37
2021/11/11 01:48:15;;;;;;;23.92;14.48;;;5.40;99.90;;;;;;12426440;28;20042;-37
2021/11/11 01:54:19;;;;;;;19.00;13.07;;;5.40;99.90;;;;;;12433595;28;20050;-40
2021/11/11 02:00:25;;;;;;;22.58;15.07;;;5.50;99.90;;;;;;12426561;28;20498;-41
2021/11/11 02:06:27;;;;;;;25.10;15.95;;;5.60;99.90;;;;;;12429125;28;20165;-37
2021/11/11 02:12:31;;;;;;;24.63;15.60;;;5.70;99.90;;;;;;12430384;28;20049;-41
2021/11/11 02:18:33;;;;;;;28.25;16.42;;;5.70;99.90;;;;;;12430193;28;20552;-37
2021/11/11 02:24:35;;;;;;;23.70;15.90;;;5.50;99.90;;;;;;12429099;28;20062;-41
2021/11/11 02:30:39;;;;;;;27.92;15.02;;;5.60;99.90;;;;;;12396665;28;20058;-42
2021/11/11 02:37:00;;;;;;;26.08;15.20;;;5.60;99.90;;;;;;12378371;28;20066;-37
2021/11/11 02:43:02;;;;;;;23.73;14.70;;;5.50;99.90;;;;;;12378430;28;20042;-38
2021/11/11 02:49:04;;;;;;;22.98;14.77;;;5.60;99.90;;;;;;12377557;28;20058;-37
2021/11/11 02:55:07;;;;;;;27.80;15.85;;;5.40;99.90;;;;;;12380201;28;20066;-40
2021/11/11 03:01:09;;;;;;;28.05;15.50;;;5.40;99.90;;;;;;12377257;28;20139;-41
2021/11/11 03:07:11;;;;;;;25.38;14.60;;;5.30;99.90;;;;;;12378189;28;20054;-41
2021/11/11 03:13:15;;;;;;;24.42;15.23;;;5.30;99.90;;;;;;12373405;28;20096;-40
2021/11/11 03:19:18;;;;;;;24.90;15.88;;;5.40;99.90;;;;;;12364416;28;20409;-41
2021/11/11 03:25:24;;;;;;;25.20;15.95;;;5.40;99.90;;;;;;12373887;28;20069;-42
2021/11/11 03:31:25;;;;;;;22.60;14.45;;;5.50;99.90;;;;;;12414120;28;20132;-36
2021/11/11 03:37:27;;;;;;;25.13;15.00;;;5.60;99.90;;;;;;12421917;28;20049;-37
2021/11/11 03:43:29;;;;;;;24.02;15.35;;;5.50;99.90;;;;;;12423741;28;20129;-41
2021/11/11 03:49:33;;;;;;;27.90;15.50;;;5.50;99.90;;;;;;12422448;28;20500;-38
2021/11/11 03:55:35;;;;;;;26.23;15.88;;;5.50;99.90;;;;;;12420183;28;20050;-37
2021/11/11 04:01:37;;;;;;;22.92;15.10;;;5.50;99.90;;;;;;12421235;28;20041;-37
2021/11/11 04:07:40;;;;;;;23.55;14.18;;;5.50;99.90;;;;;;12420807;28;20049;-41
2021/11/11 04:13:43;;;;;;;21.27;14.35;;;5.60;99.90;;;;;;12422204;28;20077;-42
2021/11/11 04:19:45;;;;;;;24.23;14.35;;;5.60;99.90;;;;;;12405293;28;20046;-41
2021/11/11 04:32:00;;;;;;;21.65;14.23;;;5.70;99.90;;;;;;12421289;28;20050;-37
2021/11/11 04:44:32;;;;;;;21.85;13.25;;;5.70;99.90;;;;;;12418732;28;20630;-41
2021/11/11 05:03:26;;;;;;;18.75;12.55;;;5.60;99.90;;;;;;12422616;28;20730;-41
2021/11/11 05:09:28;;;;;;;19.90;12.90;;;5.70;99.90;;;;;;12419808;28;20049;-37
2021/11/11 05:15:30;;;;;;;23.25;12.90;;;5.60;99.90;;;;;;12403022;28;20092;-38
2021/11/11 05:21:32;;;;;;;21.92;14.02;;;5.40;99.90;;;;;;12417900;28;20054;-37
2021/11/11 05:27:36;;;;;;;21.90;14.65;;;5.40;99.90;;;;;;12431416;28;20062;-36
2021/11/11 05:33:37;;;;;;;24.43;15.07;;;5.40;99.90;;;;;;12429209;28;20557;-41
2021/11/11 05:39:40;;;;;;;34.60;16.40;;;5.50;99.90;;;;;;12430931;28;20081;-41
2021/11/11 05:45:44;;;;;;;35.13;17.63;;;5.50;99.90;;;;;;12426191;28;20050;-38
2021/11/11 05:51:46;;;;;;;23.60;15.02;;;5.60;99.90;;;;;;12427493;28;20112;-42
2021/11/11 05:57:48;;;;;;;24.20;14.18;;;5.70;99.90;;;;;;12432167;28;20476;-42
2021/11/11 06:03:50;;;;;;;24.40;14.15;;;5.80;99.90;;;;;;12431212;28;20061;-41
2021/11/11 06:09:53;;;;;;;19.38;11.98;;;5.80;99.90;;;;;;12426784;28;20077;-41
2021/11/11 06:15:58;;;;;;;17.75;11.30;;;6.00;99.90;;;;;;12428048;28;20050;-38
2021/11/11 06:22:01;;;;;;;17.02;11.35;;;6.10;99.90;;;;;;12427733;28;20049;-41
2021/11/11 06:28:03;;;;;;;19.30;11.10;;;6.00;99.90;;;;;;12426862;28;20092;-42
2021/11/11 06:34:06;;;;;;;18.83;11.57;;;5.70;99.90;;;;;;12424427;28;20147;-42
2021/11/11 06:40:08;;;;;;;16.58;10.73;;;5.80;99.90;;;;;;12422610;28;20188;-41
2021/11/11 06:46:11;;;;;;;18.48;10.57;;;5.80;99.90;;;;;;12427475;28;20093;-42
2021/11/11 06:52:21;;;;;;;18.63;11.13;;;5.80;99.90;;;;;;12431738;28;20647;-43
2021/11/11 06:58:26;;;;;;;21.40;10.88;;;5.60;99.90;;;;;;12427946;28;20065;-37
2021/11/11 07:04:36;;;;;;;17.90;10.82;;;5.60;99.90;;;;;;12431062;28;20092;-36
2021/11/11 07:10:49;;;;;;;20.90;11.77;;;5.60;99.90;;;;;;12428099;28;20141;-41
2021/11/11 07:16:57;;;;;;;20.90;11.48;;;5.60;99.90;;;;;;12415620;28;20061;-41
2021/11/11 07:23:10;;;;;;;19.77;11.70;;;5.60;99.90;;;;;;12435733;28;20038;-37
2021/11/11 07:29:26;;;;;;;22.15;11.88;;;5.70;99.90;;;;;;12433428;28;20049;-41
2021/11/11 07:35:43;;;;;;;19.40;12.15;;;5.90;99.90;;;;;;12421727;28;20689;-38
2021/11/11 07:41:56;;;;;;;21.70;12.52;;;5.80;99.90;;;;;;12416683;28;20056;-41
2021/11/11 07:48:04;;;;;;;18.02;11.43;;;5.80;99.90;;;;;;12436548;28;20496;-41
2021/11/11 07:54:12;;;;;;;21.35;13.85;;;5.90;99.90;;;;;;12428855;28;20432;-40
2021/11/11 08:00:19;;;;;;;21.20;12.93;;;6.00;99.90;;;;;;12430445;28;20053;-38
2021/11/11 08:06:23;;;;;;;20.13;12.63;;;6.10;99.90;;;;;;12426858;28;20050;-41
2021/11/11 08:12:27;;;;;;;20.05;13.50;;;6.30;99.90;;;;;;12429454;28;20057;-37
2021/11/11 08:18:37;;;;;;;18.08;12.18;;;6.20;99.90;;;;;;12413526;28;20140;-36
2021/11/11 08:24:43;;;;;;;18.40;12.38;;;6.20;99.90;;;;;;12430243;28;20492;-41
2021/11/11 08:30:51;;;;;;;18.98;12.38;;;6.20;99.90;;;;;;12430506;28;20045;-41
2021/11/11 08:37:00;;;;;;;23.98;13.00;;;6.20;99.90;;;;;;12428629;28;20106;-37
2021/11/11 08:43:05;;;;;;;23.13;14.20;;;6.20;99.90;;;;;;12431676;28;20111;-42
2021/11/11 08:49:25;;;;;;;28.95;14.80;;;6.30;99.90;;;;;;12430469;28;20076;-37
2021/11/11 08:55:36;;;;;;;28.08;15.85;;;6.40;99.90;;;;;;12420787;28;20539;-41
2021/11/11 09:01:45;;;;;;;29.77;14.88;;;6.60;99.90;;;;;;12429682;28;20510;-40
2021/11/11 09:08:03;;;;;;;26.88;15.23;;;6.90;99.90;;;;;;12417508;28;20046;-41
2021/11/11 09:14:09;;;;;;;24.52;14.60;;;7.10;99.90;;;;;;12426599;28;20081;-38
2021/11/11 09:20:18;;;;;;;28.10;14.88;;;7.20;99.90;;;;;;12427428;28;20141;-41
2021/11/11 09:26:26;;;;;;;24.30;14.50;;;7.30;99.90;;;;;;12430296;28;20052;-39
2021/11/11 09:32:29;;;;;;;23.50;13.98;;;7.60;99.90;;;;;;12421600;28;20990;-40
2021/11/11 09:38:32;;;;;;;27.60;14.43;;;7.70;99.90;;;;;;12419530;28;20069;-41
2021/11/11 09:44:34;;;;;;;28.30;13.98;;;7.70;99.90;;;;;;12423815;28;20610;-37
2021/11/11 09:50:39;;;;;;;30.58;13.88;;;7.80;99.90;;;;;;12426769;28;20050;-36
2021/11/11 10:03:06;;;;;;;23.70;13.18;;;8.20;99.90;;;;;;12416133;28;20500;-37
2021/11/11 10:09:17;;;;;;;34.85;13.77;;;8.30;99.90;;;;;;12431397;28;20046;-37
2021/11/11 10:15:20;;;;;;;23.23;13.00;;;8.40;99.90;;;;;;12428516;28;20057;-42
2021/11/11 10:22:12;;;;;;;25.30;13.68;;;8.60;99.90;;;;;;12409225;28;20074;-42
2021/11/11 10:27:57;;;;;;;21.67;12.98;;;8.90;99.90;;;;;;12424305;28;20080;-41
2021/11/11 10:34:09;;;;;;;25.73;12.13;;;9.40;99.90;;;;;;12426399;28;20133;-37
2021/11/11 10:40:22;;;;;;;22.98;11.38;;;9.80;99.90;;;;;;12435741;28;20045;-37
2021/11/11 10:46:49;;;;;;;21.10;11.77;;;10.20;99.90;;;;;;12433540;28;20075;-41
2021/11/11 10:52:58;;;;;;;18.33;11.45;;;10.50;99.90;;;;;;12432363;28;20054;-38
2021/11/11 10:59:16;;;;;;;23.38;12.15;;;10.50;99.90;;;;;;12431769;28;20496;-38
2021/11/11 11:05:28;;;;;;;18.83;12.07;;;10.00;99.90;;;;;;12428399;28;20042;-41
2021/11/11 11:11:36;;;;;;;21.50;12.00;;;9.70;99.90;;;;;;12429659;28;20042;-37
2021/11/11 11:17:53;;;;;;;20.77;12.70;;;9.50;99.90;;;;;;12412203;28;20431;-42
2021/11/11 11:24:03;;;;;;;21.55;11.18;;;9.80;99.90;;;;;;12427795;28;20078;-45
2021/11/11 11:30:17;;;;;;;21.75;11.95;;;10.10;99.90;;;;;;12400754;28;20064;-38
2021/11/11 11:36:33;;;;;;;19.20;10.63;;;9.70;99.90;;;;;;12379829;28;20046;-37
2021/11/11 11:42:40;;;;;;;19.90;10.48;;;9.60;99.90;;;;;;12377719;28;20050;-42
2021/11/11 11:48:45;;;;;;;25.65;13.07;;;9.70;99.90;;;;;;12378930;28;20050;-41
2021/11/11 11:54:54;;;;;;;25.45;12.80;;;9.40;99.90;;;;;;12377453;28;20476;-37
2021/11/11 12:07:31;;;;;;;20.92;12.52;;;9.20;99.90;;;;;;12383160;28;20047;-38
2021/11/11 12:14:09;;;;;;;21.98;12.98;;;9.30;99.90;;;;;;12372747;28;20046;-41
2021/11/11 12:39:36;;;;;;;29.95;14.07;;;9.30;99.90;;;;;;12423234;28;20064;-38
2021/11/11 12:45:41;;;;;;;34.05;15.75;;;9.30;99.90;;;;;;12422243;28;20100;-41
2021/11/11 12:51:43;;;;;;;27.80;14.93;;;9.20;99.90;;;;;;12421025;28;20141;-41
2021/11/11 12:57:58;;;;;;;29.58;15.35;;;9.30;99.90;;;;;;12420259;28;20057;-41
2021/11/11 13:04:00;;;;;;;24.50;14.93;;;9.30;99.90;;;;;;12419466;28;20515;-37
2021/11/11 13:10:16;;;;;;;28.77;16.70;;;9.30;99.90;;;;;;12418343;28;20506;-42
2021/11/11 13:16:19;;;;;;;29.05;15.35;;;9.10;99.90;;;;;;12420659;28;20119;-41
2021/11/11 13:22:48;;;;;;;28.57;16.23;;;9.30;99.90;;;;;;12418279;28;20111;-42
2021/11/11 13:43:45;;;;;;;28.48;16.17;;;9.10;99.90;;;;;;12422953;28;20053;-41
2021/11/11 14:01:38;;;;;;;23.58;14.30;;;8.90;99.90;;;;;;12430983;28;20535;-38
2021/11/11 16:03:00;;;;;;;31.33;17.67;;;8.20;99.90;;;;;;12422090;28;20050;-41
2021/11/11 16:22:12;;;;;;;31.30;17.77;;;8.10;99.90;;;;;;12425205;28;20053;-41
2021/11/11 16:28:07;;;;;;;35.17;17.90;;;8.10;99.90;;;;;;12424696;28;20056;-37
2021/11/11 16:34:09;;;;;;;35.67;18.38;;;8.10;99.90;;;;;;12421857;28;20038;-38
2021/11/11 16:40:14;;;;;;;33.47;18.60;;;8.10;99.90;;;;;;12402287;28;20077;-37
2021/11/11 16:46:16;;;;;;;32.63;19.27;;;8.10;99.90;;;;;;12420840;28;20129;-37
2021/11/11 16:52:18;;;;;;;33.35;18.38;;;8.00;99.90;;;;;;12420342;28;20153;-37
2021/11/11 16:58:21;;;;;;;37.15;19.38;;;8.10;99.90;;;;;;12421690;28;20050;-37
2021/11/11 17:04:23;;;;;;;35.13;19.30;;;8.10;99.90;;;;;;12418614;28;20045;-41
2021/11/11 17:10:26;;;;;;;33.72;19.35;;;8.00;99.90;;;;;;12422750;28;20046;-41
2021/11/11 17:16:28;;;;;;;41.22;20.67;;;8.00;99.90;;;;;;12421332;28;20061;-41
2021/11/11 17:22:58;;;;;;;39.53;20.33;;;8.00;99.90;;;;;;12421792;28;20504;-38
2021/11/11 17:29:04;;;;;;;40.15;22.95;;;8.00;99.90;;;;;;12419486;28;20081;-37
2021/11/11 17:35:07;;;;;;;45.03;21.02;;;7.90;99.90;;;;;;12424513;28;20147;-37
2021/11/11 17:41:10;;;;;;;30.83;19.17;;;7.90;99.90;;;;;;12421134;28;20081;-41
2021/11/11 17:47:13;;;;;;;37.45;21.58;;;7.90;99.90;;;;;;12421618;28;20042;-41
2021/11/11 17:53:18;;;;;;;39.67;20.60;;;7.80;99.90;;;;;;12421665;28;20140;-41
2021/11/11 17:59:21;;;;;;;35.42;19.73;;;7.80;99.90;;;;;;12421713;28;20137;-37
2021/11/11 18:05:25;;;;;;;38.45;21.83;;;7.80;99.90;;;;;;12422611;28;20115;-37
2021/11/11 18:11:32;;;;;;;42.22;22.10;;;7.80;99.90;;;;;;12424403;28;20136;-37
2021/11/11 18:17:34;;;;;;;38.80;22.40;;;7.80;99.90;;;;;;12397933;28;20497;-37
2021/11/11 18:23:37;;;;;;;39.08;21.63;;;7.80;99.90;;;;;;12420563;28;20099;-37
2021/11/11 18:29:50;;;;;;;44.67;22.33;;;7.80;99.90;;;;;;12421545;28;20054;-37
2021/11/11 18:35:59;;;;;;;45.65;22.77;;;7.80;99.90;;;;;;12430343;28;20056;-38
2021/11/11 18:42:03;;;;;;;39.47;23.10;;;7.80;99.90;;;;;;12407661;28;20530;-41
2021/11/11 18:54:27;;;;;;;44.08;23.40;;;7.70;99.90;;;;;;12425033;28;20050;-37
2021/11/11 19:00:29;;;;;;;46.40;23.52;;;7.60;99.90;;;;;;12426206;28;20054;-41
2021/11/11 19:06:40;;;;;;;36.20;22.27;;;7.60;99.90;;;;;;12427992;28;20140;-37
2021/11/11 19:12:50;;;;;;;45.70;23.52;;;7.70;99.90;;;;;;12423719;28;20124;-38
2021/11/11 19:18:55;;;;;;;41.03;23.17;;;7.70;99.90;;;;;;12403088;28;20081;-41
2021/11/11 19:24:57;;;;;;;38.15;22.58;;;7.60;99.90;;;;;;12427787;28;20052;-40
2021/11/11 19:31:00;;;;;;;43.78;24.23;;;7.60;99.90;;;;;;12424229;28;20076;-42
2021/11/11 20:34:05;;;;;;;46.25;26.63;;;7.40;99.90;;;;;;12421222;28;20045;-37
2021/11/11 21:05:03;;;;;;;52.58;26.55;;;7.40;99.90;;;;;;12420924;28;20103;-41
2021/11/11 21:17:33;;;;;;;42.25;26.13;;;7.40;99.90;;;;;;12419543;28;20054;-41
2021/11/11 21:23:44;;;;;;;45.53;24.27;;;7.50;99.90;;;;;;12415681;28;20081;-41
2021/11/11 21:29:46;;;;;;;43.05;24.13;;;7.50;99.90;;;;;;12415753;28;20530;-36
2021/11/11 21:36:05;;;;;;;46.63;24.35;;;7.50;99.90;;;;;;12415227;28;20691;-36
2021/11/11 21:42:14;;;;;;;40.13;24.80;;;7.40;99.90;;;;;;12420063;28;20054;-36
2021/11/11 21:48:16;;;;;;;44.75;25.27;;;7.50;99.90;;;;;;12418306;28;20169;-41
2021/11/11 21:54:22;;;;;;;42.33;23.52;;;7.40;99.90;;;;;;12417997;28;20083;-41
2021/11/11 22:25:53;;;;;;;44.90;25.23;;;7.50;99.90;;;;;;12221853;29;20051;-41
2021/11/11 22:38:03;;;;;;;44.00;25.55;;;7.50;99.90;;;;;;12425798;28;20078;-37
2021/11/11 22:44:08;;;;;;;52.63;26.17;;;7.50;99.90;;;;;;12426687;28;20052;-42
2021/11/11 22:50:14;;;;;;;47.90;25.35;;;7.50;99.90;;;;;;12428604;28;20057;-37
2021/11/11 23:33:04;;;;;;;44.45;25.42;;;7.50;99.90;;;;;;12374485;28;20137;-37
2021/11/11 23:39:06;;;;;;;44.13;24.15;;;7.60;99.90;;;;;;12375881;28;20104;-37
2021/11/11 23:45:08;;;;;;;43.30;23.35;;;7.60;99.90;;;;;;12377408;28;20583;-37
2021/11/11 23:51:34;;;;;;;40.58;25.10;;;7.60;99.90;;;;;;12356437;28;20042;-37
